Baldwin, Wisconsin
Current Conditions -  °F | °C
As of 7:55 PM on Thursday 18 Dec 2014 (Local Time) from KRNH Reporting Station
Overcast Overcast  
Wind Chill: 16°   Ceiling: 1300
Heat Index: 22°   Visibility: 10mi
Dew Point: 20°   Wind: 5mph
Humidity: 89%   Direction: 100°E
Pressure: 30.26"   Gusts: NA
Location:  44.97°N, 92.37°W
Report Text: KRNH 190155Z AUTO 10004KT 10SM OVC013 M05/M07 A3026 RMK AO2 T10531068
Loading
Personal Weather Stations






























Interactive Weather Map New forecast layout! Learn more

10-Day Weather Forecast

Advertisements
Track Severe Weather on mobile